Terminal Aerodrome Forecast
Issued by NWS

Home | Current Version | Previous Version | Text Only | Print | Product List | Glossary On
Versions: 1 2 3 4 5 6 7 8 9 10 11 12 13 14 15
000
FTUS42 KMHX 031746
TAFPGV
TAF
KPGV 031746Z 0318/0418 17007KT P6SM BKN030
     FM032100 21010KT P6SM VCTS BKN035CB
      TEMPO 0321/0401 3SM TSRA BKN020CB
     FM040400 21007KT P6SM VCSH SCT010 BKN100
     FM041500 24012KT P6SM SCT030
      AMD LTD TO CLD VIS AND WIND=

USA.gov is the U.S. government's official web portal to all federal, state and local government web resources and services.